Time;durP1;ratioP1;P1;durP2;ratioP2;P2;SDS_P1;SDS_P2;PMS_P1;PMS_P2;Temp;Humidity;BMP_temperature;BMP_pressure;BME280_temperature;BME280_humidity;BME280_pressure;Samples;Min_cycle;Max_cycle;Signal;HPM_P1;HPM_P2
2023/01/04 00:05:44;;;;;;;1.77;0.30;;;2.20;99.90;;;;;;21069091;28;20035;-57
2023/01/04 00:15:46;;;;;;;0.63;0.30;;;2.30;99.90;;;;;;21066811;28;20032;-50
2023/01/04 00:25:48;;;;;;;1.17;0.50;;;2.20;99.90;;;;;;21072231;28;20039;-50
2023/01/04 00:35:49;;;;;;;1.15;0.40;;;2.10;99.90;;;;;;21070329;28;20043;-58
2023/01/04 00:45:51;;;;;;;0.90;0.30;;;2.20;99.90;;;;;;21066114;28;20032;-51
2023/01/04 00:55:58;;;;;;;0.60;0.30;;;2.20;99.90;;;;;;21069596;28;20048;-58
2023/01/04 01:06:04;;;;;;;1.58;0.40;;;2.10;99.90;;;;;;21069210;28;20066;-57
2023/01/04 01:16:15;;;;;;;2.45;0.40;;;2.00;99.90;;;;;;21060382;28;20043;-58
2023/01/04 01:26:19;;;;;;;1.10;0.47;;;2.10;99.90;;;;;;21067499;28;20032;-47
2023/01/04 01:36:23;;;;;;;2.15;0.60;;;2.20;99.90;;;;;;21066473;28;20102;-50
2023/01/04 01:46:50;;;;;;;1.60;0.40;;;2.30;99.90;;;;;;21065583;28;20040;-54
2023/01/04 01:56:55;;;;;;;0.52;0.20;;;2.70;99.90;;;;;;21066974;28;20052;-59
2023/01/04 02:06:57;;;;;;;0.57;0.30;;;2.80;99.90;;;;;;21064807;28;20036;-58
2023/01/04 02:17:05;;;;;;;0.40;0.30;;;2.80;99.90;;;;;;21062564;28;20378;-49
2023/01/04 02:27:44;;;;;;;0.50;0.30;;;2.70;99.90;;;;;;21070321;28;20028;-59
2023/01/04 02:37:56;;;;;;;1.23;0.60;;;2.50;99.90;;;;;;21062310;28;20032;-58
2023/01/04 02:59:02;;;;;;;0.70;0.40;;;2.50;99.90;;;;;;21061001;28;20089;-59
2023/01/04 03:09:22;;;;;;;0.30;0.20;;;2.60;99.90;;;;;;21069374;28;20044;-49
2023/01/04 03:51:14;;;;;;;1.35;0.13;;;2.60;99.90;;;;;;21074634;28;20097;-59
2023/01/04 04:01:20;;;;;;;0.28;0.05;;;2.50;99.90;;;;;;21039334;28;20031;-58
2023/01/04 04:11:30;;;;;;;0.90;0.20;;;2.40;99.90;;;;;;21069311;28;20051;-50
2023/01/04 04:21:32;;;;;;;0.10;0.03;;;2.40;99.90;;;;;;21071461;28;20396;-59
2023/01/04 04:31:34;;;;;;;0.93;0.25;;;2.50;99.90;;;;;;21053584;28;20028;-55
2023/01/04 04:41:38;;;;;;;0.40;0.10;;;2.40;99.90;;;;;;21070377;28;20031;-59
2023/01/04 04:51:41;;;;;;;0.10;0.10;;;2.30;99.90;;;;;;21051212;28;20056;-53
2023/01/04 05:01:43;;;;;;;2.22;0.10;;;2.00;99.90;;;;;;21069557;28;20036;-47
2023/01/04 05:22:04;;;;;;;1.13;0.10;;;1.70;99.90;;;;;;21063944;28;20077;-49
2023/01/04 05:32:06;;;;;;;1.38;0.52;;;1.80;99.90;;;;;;21066967;28;20039;-59
2023/01/04 05:42:26;;;;;;;2.60;1.38;;;2.00;99.90;;;;;;21063313;28;20032;-53
2023/01/04 05:52:28;;;;;;;2.78;1.48;;;1.90;99.90;;;;;;21065888;28;20060;-50
2023/01/04 06:02:30;;;;;;;3.45;1.80;;;1.90;99.90;;;;;;21064723;28;20044;-48
2023/01/04 06:12:32;;;;;;;4.75;1.58;;;1.90;99.90;;;;;;21044198;28;20533;-60
2023/01/04 06:22:33;;;;;;;4.10;1.60;;;1.90;99.90;;;;;;21046902;28;20036;-58
2023/01/04 06:32:35;;;;;;;1.48;1.10;;;2.50;99.90;;;;;;21064411;28;20020;-50
2023/01/04 06:42:46;;;;;;;2.25;1.20;;;2.60;99.90;;;;;;21045539;28;20036;-49
2023/01/04 06:52:47;;;;;;;2.40;1.47;;;2.70;99.90;;;;;;21042595;28;20052;-59
2023/01/04 07:02:49;;;;;;;2.33;1.40;;;2.90;99.90;;;;;;21018496;28;20025;-60
2023/01/04 07:12:51;;;;;;;2.20;1.25;;;2.70;99.90;;;;;;20986108;28;20392;-58
2023/01/04 07:22:52;;;;;;;1.73;1.20;;;2.60;99.90;;;;;;20997766;28;20101;-61
2023/01/04 07:32:54;;;;;;;1.40;1.00;;;2.90;99.90;;;;;;20978866;28;20090;-60
2023/01/04 07:42:58;;;;;;;0.75;0.60;;;2.90;99.90;;;;;;20996219;28;20431;-50
2023/01/04 07:53:00;;;;;;;1.35;1.02;;;3.00;99.90;;;;;;20995214;28;20082;-53
2023/01/04 08:03:02;;;;;;;0.90;0.60;;;3.70;99.90;;;;;;20994702;28;20044;-55
2023/01/04 08:13:04;;;;;;;2.17;1.20;;;4.50;99.90;;;;;;20994056;28;20035;-55
2023/01/04 08:23:06;;;;;;;3.28;1.50;;;5.20;99.90;;;;;;20975132;28;20028;-55
2023/01/04 08:33:16;;;;;;;3.72;1.67;;;5.20;99.90;;;;;;20992040;28;20041;-57
2023/01/04 08:43:18;;;;;;;3.40;1.70;;;5.20;99.90;;;;;;20991160;28;20025;-53
2023/01/04 08:53:19;;;;;;;2.55;1.30;;;5.50;99.90;;;;;;20990120;28;20287;-54
2023/01/04 09:03:21;;;;;;;3.40;1.17;;;6.00;99.90;;;;;;20989536;28;20098;-62
2023/01/04 09:13:22;;;;;;;2.28;1.20;;;6.60;99.90;;;;;;20988788;28;20033;-61
2023/01/04 09:23:24;;;;;;;2.72;1.40;;;7.10;99.90;;;;;;20987979;28;20029;-57
2023/01/04 09:33:26;;;;;;;3.15;1.48;;;7.40;99.90;;;;;;20987464;28;20078;-57
2023/01/04 09:43:32;;;;;;;3.05;1.40;;;7.80;99.90;;;;;;20956393;28;20032;-64
2023/01/04 13:53:22;;;;;;;11.57;7.20;;;8.00;99.90;;;;;;21209921;27;20112;-59
2023/01/04 14:03:43;;;;;;;8.60;6.00;;;7.30;99.90;;;;;;21204132;28;20023;-60
2023/01/04 14:13:47;;;;;;;6.28;4.50;;;6.90;99.90;;;;;;21192019;27;20028;-58
2023/01/04 14:23:48;;;;;;;10.05;7.00;;;7.10;99.90;;;;;;21203070;27;20039;-58
2023/01/04 14:33:52;;;;;;;11.25;8.35;;;7.50;99.90;;;;;;21228889;28;20027;-58
2023/01/04 14:43:59;;;;;;;10.43;7.95;;;7.20;99.90;;;;;;21227788;28;20032;-55
2023/01/04 14:54:01;;;;;;;9.18;6.80;;;6.70;99.90;;;;;;21227159;28;20035;-58
2023/01/04 15:04:04;;;;;;;9.93;6.38;;;6.30;99.90;;;;;;21171909;28;20394;-54
2023/01/04 15:14:06;;;;;;;13.10;9.15;;;6.20;99.90;;;;;;21166891;28;20061;-58
2023/01/04 15:24:08;;;;;;;13.65;9.32;;;5.70;99.90;;;;;;21168809;28;20475;-58
2023/01/04 15:34:10;;;;;;;12.02;8.23;;;5.30;99.90;;;;;;21167613;28;20024;-58
2023/01/04 15:44:12;;;;;;;8.32;6.10;;;5.20;99.90;;;;;;21166710;28;20399;-58
2023/01/04 15:54:13;;;;;;;6.10;4.90;;;5.00;99.90;;;;;;21165747;28;20043;-54
2023/01/04 16:04:15;;;;;;;4.45;1.67;;;4.90;99.90;;;;;;21154800;28;20032;-58
2023/01/04 16:14:17;;;;;;;2.95;2.05;;;4.70;99.90;;;;;;21150994;28;20028;-55
2023/01/04 16:24:18;;;;;;;2.15;1.02;;;4.50;99.90;;;;;;21152090;27;20020;-55
2023/01/04 16:34:20;;;;;;;1.40;0.80;;;4.20;99.90;;;;;;21152273;28;20472;-58
2023/01/04 16:44:22;;;;;;;1.80;0.75;;;3.80;99.90;;;;;;21131829;28;20052;-55
2023/01/04 16:54:23;;;;;;;1.73;0.70;;;3.80;99.90;;;;;;21161339;28;20180;-55
2023/01/04 17:04:25;;;;;;;1.95;1.20;;;3.70;99.90;;;;;;21160433;28;20100;-53
2023/01/04 17:14:29;;;;;;;2.10;0.90;;;3.70;99.90;;;;;;21159625;28;20023;-58
2023/01/04 17:24:31;;;;;;;1.40;0.77;;;3.70;99.90;;;;;;21159039;28;20390;-58
2023/01/04 17:34:33;;;;;;;1.15;0.80;;;3.50;99.90;;;;;;21158703;28;20035;-58
2023/01/04 17:44:34;;;;;;;1.30;0.80;;;3.30;99.90;;;;;;21157855;28;20093;-58
2023/01/04 17:54:36;;;;;;;1.02;0.57;;;3.30;99.90;;;;;;21157615;28;20047;-58
2023/01/04 18:04:37;;;;;;;1.23;0.60;;;3.20;99.90;;;;;;21108585;28;20028;-58
2023/01/04 18:14:39;;;;;;;0.70;0.45;;;3.10;99.90;;;;;;21118778;28;20032;-58
2023/01/04 18:24:41;;;;;;;0.70;0.47;;;3.00;99.90;;;;;;21140502;28;20472;-58
2023/01/04 18:34:43;;;;;;;1.00;0.63;;;2.90;99.90;;;;;;21146430;28;20426;-58
2023/01/04 18:44:45;;;;;;;0.88;0.45;;;2.80;99.90;;;;;;21171432;28;20044;-58
2023/01/04 18:54:47;;;;;;;0.75;0.50;;;2.70;99.90;;;;;;21147021;28;20464;-58
2023/01/04 19:04:49;;;;;;;0.75;0.50;;;2.60;99.90;;;;;;21110067;28;20023;-58
2023/01/04 19:14:50;;;;;;;1.15;0.43;;;2.60;99.90;;;;;;21169433;28;20062;-58
2023/01/04 19:24:52;;;;;;;0.80;0.40;;;2.70;99.90;;;;;;21118009;28;20492;-58
2023/01/04 19:34:54;;;;;;;0.88;0.38;;;2.70;99.90;;;;;;21142049;28;20039;-58
2023/01/04 19:44:56;;;;;;;0.60;0.40;;;2.70;99.90;;;;;;21141364;28;20581;-58
2023/01/04 19:54:57;;;;;;;0.57;0.40;;;2.50;99.90;;;;;;21098767;28;20038;-58
2023/01/04 20:05:00;;;;;;;0.93;0.40;;;2.30;99.90;;;;;;21148801;28;20027;-58
2023/01/04 20:15:02;;;;;;;0.80;0.60;;;2.20;99.90;;;;;;21085353;28;20032;-58
2023/01/04 20:25:04;;;;;;;0.70;0.45;;;2.20;99.90;;;;;;21156202;28;20028;-58
2023/01/04 20:35:06;;;;;;;0.85;0.40;;;2.10;99.90;;;;;;21135298;28;20035;-58
2023/01/04 20:45:09;;;;;;;1.33;0.60;;;2.00;99.90;;;;;;21154111;28;20040;-58
2023/01/04 20:55:10;;;;;;;1.00;0.45;;;2.00;99.90;;;;;;21093082;28;20055;-58
2023/01/04 21:05:12;;;;;;;3.03;0.40;;;2.00;99.90;;;;;;21139050;28;20107;-58
2023/01/04 21:15:14;;;;;;;1.33;0.40;;;2.10;99.90;;;;;;21157840;28;20035;-58
2023/01/04 21:25:16;;;;;;;1.88;0.43;;;2.00;99.90;;;;;;21083272;28;20058;-58
2023/01/04 21:35:18;;;;;;;0.70;0.40;;;1.90;99.90;;;;;;21072969;28;20028;-58
2023/01/04 21:45:20;;;;;;;0.63;0.30;;;2.00;99.90;;;;;;21149622;28;20051;-58
2023/01/04 21:55:22;;;;;;;0.70;0.40;;;2.00;99.90;;;;;;21152731;28;20031;-58
2023/01/04 22:05:24;;;;;;;0.50;0.30;;;2.00;99.90;;;;;;21132314;28;20468;-58
2023/01/04 22:15:26;;;;;;;0.80;0.35;;;2.00;99.90;;;;;;21130541;28;20024;-59
2023/01/04 22:25:28;;;;;;;0.82;0.40;;;2.10;99.90;;;;;;21169677;28;20088;-58
2023/01/04 22:35:30;;;;;;;1.00;0.43;;;2.20;99.90;;;;;;21124604;28;20468;-58
2023/01/04 22:45:32;;;;;;;1.63;0.40;;;2.30;99.90;;;;;;21163847;28;20094;-58
2023/01/04 22:55:33;;;;;;;0.77;0.45;;;2.30;99.90;;;;;;21148540;28;20556;-58
2023/01/04 23:05:39;;;;;;;1.08;0.38;;;2.20;99.90;;;;;;21116603;28;20035;-58
2023/01/04 23:15:40;;;;;;;0.73;0.45;;;2.10;99.90;;;;;;21146790;28;20031;-58
2023/01/04 23:25:42;;;;;;;0.85;0.30;;;2.10;99.90;;;;;;21166547;28;20028;-58
2023/01/04 23:35:44;;;;;;;1.08;0.47;;;2.00;99.90;;;;;;21118695;28;20028;-59
2023/01/04 23:45:45;;;;;;;0.60;0.40;;;2.00;99.90;;;;;;21159509;27;20043;-58
2023/01/04 23:55:59;;;;;;;0.70;0.40;;;1.90;99.90;;;;;;21165113;28;20028;-58
